sensor_id;sensor_type;location;lat;lon;timestamp;pressure;altitude;pressure_sealevel;temperature;humidity
60345;BME280;46188;52.324;8.032;2023-08-24T00:00:37;100765.66;;;17.81;100.00
60345;BME280;46188;52.324;8.032;2023-08-24T00:03:02;100758.53;;;17.82;100.00
60345;BME280;46188;52.324;8.032;2023-08-24T00:05:28;100756.72;;;17.87;100.00
60345;BME280;46188;52.324;8.032;2023-08-24T00:07:53;100746.03;;;17.84;100.00
60345;BME280;46188;52.324;8.032;2023-08-24T00:10:18;100750.50;;;17.83;100.00
60345;BME280;46188;52.324;8.032;2023-08-24T00:12:44;100745.25;;;17.77;100.00
60345;BME280;46188;52.324;8.032;2023-08-24T00:15:09;100755.06;;;17.75;100.00
60345;BME280;46188;52.324;8.032;2023-08-24T00:17:35;100751.50;;;17.76;100.00
60345;BME280;46188;52.324;8.032;2023-08-24T00:20:01;100749.72;;;17.77;100.00
60345;BME280;46188;52.324;8.032;2023-08-24T00:22:29;100744.34;;;17.80;100.00
60345;BME280;46188;52.324;8.032;2023-08-24T00:24:55;100751.50;;;17.76;100.00
60345;BME280;46188;52.324;8.032;2023-08-24T00:27:20;100750.69;;;17.73;100.00
60345;BME280;46188;52.324;8.032;2023-08-24T00:29:45;100745.38;;;17.71;100.00
60345;BME280;46188;52.324;8.032;2023-08-24T00:32:10;100739.13;;;17.70;100.00
60345;BME280;46188;52.324;8.032;2023-08-24T00:34:35;100740.06;;;17.68;100.00
60345;BME280;46188;52.324;8.032;2023-08-24T00:37:01;100751.69;;;17.62;100.00
60345;BME280;46188;52.324;8.032;2023-08-24T00:39:26;100749.94;;;17.61;100.00
60345;BME280;46188;52.324;8.032;2023-08-24T00:41:52;100742.81;;;17.62;100.00
60345;BME280;46188;52.324;8.032;2023-08-24T00:44:17;100733.97;;;17.58;100.00
60345;BME280;46188;52.324;8.032;2023-08-24T00:46:42;100730.44;;;17.58;100.00
60345;BME280;46188;52.324;8.032;2023-08-24T00:49:08;100718.91;;;17.56;100.00
60345;BME280;46188;52.324;8.032;2023-08-24T00:51:34;100712.66;;;17.58;100.00
60345;BME280;46188;52.324;8.032;2023-08-24T00:53:59;100717.19;;;17.53;100.00
60345;BME280;46188;52.324;8.032;2023-08-24T00:56:25;100719.81;;;17.56;100.00
60345;BME280;46188;52.324;8.032;2023-08-24T00:58:50;100727.84;;;17.53;100.00
60345;BME280;46188;52.324;8.032;2023-08-24T01:01:17;100727.81;;;17.56;100.00
60345;BME280;46188;52.324;8.032;2023-08-24T01:03:43;100733.13;;;17.56;100.00
60345;BME280;46188;52.324;8.032;2023-08-24T01:06:08;100725.22;;;17.50;100.00
60345;BME280;46188;52.324;8.032;2023-08-24T01:08:33;100729.72;;;17.46;100.00
60345;BME280;46188;52.324;8.032;2023-08-24T01:11:04;100727.06;;;17.45;100.00
60345;BME280;46188;52.324;8.032;2023-08-24T01:13:41;100729.00;;;17.32;100.00
60345;BME280;46188;52.324;8.032;2023-08-24T01:16:16;100726.25;;;17.38;100.00
60345;BME280;46188;52.324;8.032;2023-08-24T01:18:44;100733.31;;;17.41;100.00
60345;BME280;46188;52.324;8.032;2023-08-24T01:21:10;100731.59;;;17.38;100.00
60345;BME280;46188;52.324;8.032;2023-08-24T01:24:17;100728.91;;;17.40;100.00
60345;BME280;46188;52.324;8.032;2023-08-24T01:26:44;100722.66;;;17.39;100.00
60345;BME280;46188;52.324;8.032;2023-08-24T01:29:11;100719.16;;;17.37;100.00
60345;BME280;46188;52.324;8.032;2023-08-24T01:31:37;100717.44;;;17.34;100.00
60345;BME280;46188;52.324;8.032;2023-08-24T01:34:03;100708.50;;;17.36;100.00
60345;BME280;46188;52.324;8.032;2023-08-24T01:36:28;100715.56;;;17.41;100.00
60345;BME280;46188;52.324;8.032;2023-08-24T01:38:59;100718.22;;;17.41;100.00
60345;BME280;46188;52.324;8.032;2023-08-24T01:41:35;100711.09;;;17.42;100.00
60345;BME280;46188;52.324;8.032;2023-08-24T01:44:08;100710.28;;;17.38;100.00
60345;BME280;46188;52.324;8.032;2023-08-24T01:46:36;100703.19;;;17.34;100.00
60345;BME280;46188;52.324;8.032;2023-08-24T01:49:03;100697.00;;;17.33;100.00
60345;BME280;46188;52.324;8.032;2023-08-24T01:51:30;100689.91;;;17.32;100.00
60345;BME280;46188;52.324;8.032;2023-08-24T01:53:56;100688.03;;;17.38;100.00
60345;BME280;46188;52.324;8.032;2023-08-24T01:56:22;100681.84;;;17.37;100.00
60345;BME280;46188;52.324;8.032;2023-08-24T01:58:47;100679.25;;;17.32;100.00
60345;BME280;46188;52.324;8.032;2023-08-24T02:01:13;100672.13;;;17.34;100.00
60345;BME280;46188;52.324;8.032;2023-08-24T02:03:38;100678.38;;;17.32;100.00
60345;BME280;46188;52.324;8.032;2023-08-24T02:06:07;100673.94;;;17.29;100.00
60345;BME280;46188;52.324;8.032;2023-08-24T02:08:33;100688.34;;;17.14;100.00
60345;BME280;46188;52.324;8.032;2023-08-24T02:10:59;100678.59;;;17.17;100.00
60345;BME280;46188;52.324;8.032;2023-08-24T02:13:24;100684.72;;;17.22;100.00
60345;BME280;46188;52.324;8.032;2023-08-24T02:15:49;100673.16;;;17.23;100.00
60345;BME280;46188;52.324;8.032;2023-08-24T02:18:14;100669.63;;;17.21;100.00
60345;BME280;46188;52.324;8.032;2023-08-24T02:20:40;100665.22;;;17.21;100.00
60345;BME280;46188;52.324;8.032;2023-08-24T02:23:05;100672.31;;;17.19;100.00
60345;BME280;46188;52.324;8.032;2023-08-24T02:25:31;100659.91;;;17.18;100.00
60345;BME280;46188;52.324;8.032;2023-08-24T02:27:56;100643.91;;;17.20;100.00
60345;BME280;46188;52.324;8.032;2023-08-24T02:30:22;100644.78;;;17.20;100.00
60345;BME280;46188;52.324;8.032;2023-08-24T02:32:47;100644.81;;;17.17;100.00
60345;BME280;46188;52.324;8.032;2023-08-24T02:35:12;100642.22;;;17.11;100.00
60345;BME280;46188;52.324;8.032;2023-08-24T02:37:38;100644.03;;;17.09;100.00
60345;BME280;46188;52.324;8.032;2023-08-24T02:40:03;100644.03;;;17.09;100.00
60345;BME280;46188;52.324;8.032;2023-08-24T02:42:33;100650.22;;;17.11;100.00
60345;BME280;46188;52.324;8.032;2023-08-24T02:44:58;100654.72;;;17.07;100.00
60345;BME280;46188;52.324;8.032;2023-08-24T02:47:24;100654.66;;;17.12;100.00
60345;BME280;46188;52.324;8.032;2023-08-24T02:49:49;100655.50;;;17.15;100.00
60345;BME280;46188;52.324;8.032;2023-08-24T02:52:14;100645.72;;;17.16;100.00
60345;BME280;46188;52.324;8.032;2023-08-24T02:54:39;100643.97;;;17.15;100.00
60345;BME280;46188;52.324;8.032;2023-08-24T02:57:05;100637.72;;;17.16;100.00
60345;BME280;46188;52.324;8.032;2023-08-24T02:59:30;100649.25;;;17.18;100.00
60345;BME280;46188;52.324;8.032;2023-08-24T03:01:55;100644.75;;;17.22;100.00
60345;BME280;46188;52.324;8.032;2023-08-24T03:04:21;100639.44;;;17.22;100.00
60345;BME280;46188;52.324;8.032;2023-08-24T03:06:47;100643.94;;;17.18;100.00
60345;BME280;46188;52.324;8.032;2023-08-24T03:09:12;100648.31;;;17.22;100.00
60345;BME280;46188;52.324;8.032;2023-08-24T03:11:37;100638.50;;;17.23;100.00
60345;BME280;46188;52.324;8.032;2023-08-24T03:14:03;100643.84;;;17.23;100.00
60345;BME280;46188;52.324;8.032;2023-08-24T03:16:28;100647.44;;;17.22;100.00
60345;BME280;46188;52.324;8.032;2023-08-24T03:18:53;100637.69;;;17.18;100.00
60345;BME280;46188;52.324;8.032;2023-08-24T03:21:18;100644.84;;;17.15;100.00
60345;BME280;46188;52.324;8.032;2023-08-24T03:23:44;100647.53;;;17.14;100.00
60345;BME280;46188;52.324;8.032;2023-08-24T03:26:09;100647.50;;;17.15;100.00
60345;BME280;46188;52.324;8.032;2023-08-24T03:28:34;100647.44;;;17.20;100.00
60345;BME280;46188;52.324;8.032;2023-08-24T03:31:00;100656.25;;;17.27;100.00
60345;BME280;46188;52.324;8.032;2023-08-24T03:33:25;100647.31;;;17.29;100.00
60345;BME280;46188;52.324;8.032;2023-08-24T03:35:53;100641.03;;;17.33;100.00
60345;BME280;46188;52.324;8.032;2023-08-24T03:38:18;100648.03;;;17.41;100.00
60345;BME280;46188;52.324;8.032;2023-08-24T03:40:43;100645.34;;;17.42;100.00
60345;BME280;46188;52.324;8.032;2023-08-24T03:43:09;100641.00;;;17.37;100.00
60345;BME280;46188;52.324;8.032;2023-08-24T03:45:34;100648.97;;;17.40;100.00
60345;BME280;46188;52.324;8.032;2023-08-24T03:47:59;100654.28;;;17.40;100.00
60345;BME280;46188;52.324;8.032;2023-08-24T03:50:24;100656.03;;;17.41;100.00
60345;BME280;46188;52.324;8.032;2023-08-24T03:52:51;100648.00;;;17.42;100.00
60345;BME280;46188;52.324;8.032;2023-08-24T03:55:16;100646.25;;;17.43;100.00
60345;BME280;46188;52.324;8.032;2023-08-24T03:57:42;100660.41;;;17.46;100.00
60345;BME280;46188;52.324;8.032;2023-08-24T04:00:08;100676.59;;;17.31;100.00
60345;BME280;46188;52.324;8.032;2023-08-24T04:02:43;100673.94;;;17.31;100.00
60345;BME280;46188;52.324;8.032;2023-08-24T04:05:09;100675.59;;;17.40;100.00
60345;BME280;46188;52.324;8.032;2023-08-24T04:07:34;100670.28;;;17.40;100.00
60345;BME280;46188;52.324;8.032;2023-08-24T04:10:02;100668.44;;;17.45;100.00
60345;BME280;46188;52.324;8.032;2023-08-24T04:12:30;100669.41;;;17.38;100.00
60345;BME280;46188;52.324;8.032;2023-08-24T04:14:55;100668.56;;;17.32;100.00
60345;BME280;46188;52.324;8.032;2023-08-24T04:17:22;100661.47;;;17.34;100.00
60345;BME280;46188;52.324;8.032;2023-08-24T04:19:48;100660.53;;;17.37;100.00
60345;BME280;46188;52.324;8.032;2023-08-24T04:22:13;100659.63;;;17.38;100.00
60345;BME280;46188;52.324;8.032;2023-08-24T04:24:38;100655.13;;;17.43;100.00
60345;BME280;46188;52.324;8.032;2023-08-24T04:27:03;100655.03;;;17.49;100.00
60345;BME280;46188;52.324;8.032;2023-08-24T04:29:29;100657.63;;;17.54;100.00
60345;BME280;46188;52.324;8.032;2023-08-24T04:31:54;100661.13;;;17.58;100.00
60345;BME280;46188;52.324;8.032;2023-08-24T04:34:19;100659.34;;;17.58;100.00
60345;BME280;46188;52.324;8.032;2023-08-24T04:36:44;100661.19;;;17.53;100.00
60345;BME280;46188;52.324;8.032;2023-08-24T04:39:10;100652.28;;;17.54;100.00
60345;BME280;46188;52.324;8.032;2023-08-24T04:41:35;100652.28;;;17.54;100.00
60345;BME280;46188;52.324;8.032;2023-08-24T04:44:01;100642.59;;;17.50;100.00
60345;BME280;46188;52.324;8.032;2023-08-24T04:46:26;100639.06;;;17.48;100.00
60345;BME280;46188;52.324;8.032;2023-08-24T04:48:51;100639.06;;;17.49;100.00
60345;BME280;46188;52.324;8.032;2023-08-24T04:51:16;100626.66;;;17.45;100.00
60345;BME280;46188;52.324;8.032;2023-08-24T04:53:42;100636.41;;;17.48;100.00
60345;BME280;46188;52.324;8.032;2023-08-24T04:56:07;100636.38;;;17.49;100.00
60345;BME280;46188;52.324;8.032;2023-08-24T04:58:33;100639.91;;;17.50;100.00
60345;BME280;46188;52.324;8.032;2023-08-24T05:00:59;100636.41;;;17.48;100.00
60345;BME280;46188;52.324;8.032;2023-08-24T05:03:24;100640.78;;;17.50;100.00
60345;BME280;46188;52.324;8.032;2023-08-24T05:05:49;100640.78;;;17.50;100.00
60345;BME280;46188;52.324;8.032;2023-08-24T05:08:15;100637.22;;;17.51;100.00
60345;BME280;46188;52.324;8.032;2023-08-24T05:10:40;100637.25;;;17.50;100.00
60345;BME280;46188;52.324;8.032;2023-08-24T05:13:06;100638.09;;;17.52;100.00
60345;BME280;46188;52.324;8.032;2023-08-24T05:15:31;100632.72;;;17.55;100.00
60345;BME280;46188;52.324;8.032;2023-08-24T05:17:56;100628.25;;;17.57;100.00
60345;BME280;46188;52.324;8.032;2023-08-24T05:20:27;100626.63;;;17.48;100.00
60345;BME280;46188;52.324;8.032;2023-08-24T05:22:52;100619.63;;;17.41;100.00
60345;BME280;46188;52.324;8.032;2023-08-24T05:25:23;100614.28;;;17.41;100.00
60345;BME280;46188;52.324;8.032;2023-08-24T05:27:48;100603.53;;;17.46;100.00
60345;BME280;46188;52.324;8.032;2023-08-24T05:30:13;100603.53;;;17.46;100.00
60345;BME280;46188;52.324;8.032;2023-08-24T05:32:39;100590.16;;;17.49;100.00
60345;BME280;46188;52.324;8.032;2023-08-24T05:35:08;100584.81;;;17.50;100.00
60345;BME280;46188;52.324;8.032;2023-08-24T05:37:34;100591.00;;;17.52;100.00
60345;BME280;46188;52.324;8.032;2023-08-24T05:40:00;100588.28;;;17.56;100.00
60345;BME280;46188;52.324;8.032;2023-08-24T05:42:25;100599.84;;;17.58;100.00
60345;BME280;46188;52.324;8.032;2023-08-24T05:44:50;100600.66;;;17.61;100.00
60345;BME280;46188;52.324;8.032;2023-08-24T05:47:16;100615.75;;;17.61;100.00
60345;BME280;46188;52.324;8.032;2023-08-24T05:49:41;100621.97;;;17.61;100.00
60345;BME280;46188;52.324;8.032;2023-08-24T05:52:06;100631.69;;;17.64;100.00
60345;BME280;46188;52.324;8.032;2023-08-24T05:54:31;100631.75;;;17.61;100.00
60345;BME280;46188;52.324;8.032;2023-08-24T05:56:57;100629.00;;;17.65;100.00
60345;BME280;46188;52.324;8.032;2023-08-24T05:59:25;100626.22;;;17.73;100.00
60345;BME280;46188;52.324;8.032;2023-08-24T06:01:51;100620.84;;;17.76;100.00
60345;BME280;46188;52.324;8.032;2023-08-24T06:04:16;100614.53;;;17.82;100.00
60345;BME280;46188;52.324;8.032;2023-08-24T06:06:41;100620.69;;;17.85;100.00
60345;BME280;46188;52.324;8.032;2023-08-24T06:09:06;100621.59;;;17.86;100.00
60345;BME280;46188;52.324;8.032;2023-08-24T06:11:32;100618.94;;;17.87;100.00
60345;BME280;46188;52.324;8.032;2023-08-24T06:13:57;100612.69;;;17.87;100.00
60345;BME280;46188;52.324;8.032;2023-08-24T06:16:23;100605.59;;;17.87;100.00
60345;BME280;46188;52.324;8.032;2023-08-24T06:18:48;100614.47;;;17.85;100.00
60345;BME280;46188;52.324;8.032;2023-08-24T06:21:15;100604.69;;;17.87;100.00
60345;BME280;46188;52.324;8.032;2023-08-24T06:23:40;100606.53;;;17.82;100.00
60345;BME280;46188;52.324;8.032;2023-08-24T06:26:05;100601.41;;;17.69;100.00
60345;BME280;46188;52.324;8.032;2023-08-24T06:28:31;100600.44;;;17.74;100.00
60345;BME280;46188;52.324;8.032;2023-08-24T06:30:56;100600.41;;;17.77;100.00
60345;BME280;46188;52.324;8.032;2023-08-24T06:33:27;100595.81;;;17.85;100.00
60345;BME280;46188;52.324;8.032;2023-08-24T06:35:58;100594.91;;;17.86;100.00
60345;BME280;46188;52.324;8.032;2023-08-24T06:38:23;100591.25;;;17.95;100.00
60345;BME280;46188;52.324;8.032;2023-08-24T06:40:49;100590.28;;;17.97;100.00
60345;BME280;46188;52.324;8.032;2023-08-24T06:43:14;100587.53;;;18.03;100.00
60345;BME280;46188;52.324;8.032;2023-08-24T06:45:40;100581.19;;;18.11;100.00
60345;BME280;46188;52.324;8.032;2023-08-24T06:48:05;100573.00;;;18.20;100.00
60345;BME280;46188;52.324;8.032;2023-08-24T06:50:32;100565.81;;;18.23;100.00
60345;BME280;46188;52.324;8.032;2023-08-24T06:52:57;100567.44;;;18.32;100.00
60345;BME280;46188;52.324;8.032;2023-08-24T06:55:22;100560.13;;;18.42;100.00
60345;BME280;46188;52.324;8.032;2023-08-24T06:57:48;100559.88;;;18.54;100.00
60345;BME280;46188;52.324;8.032;2023-08-24T07:00:16;100553.47;;;18.61;100.00
60345;BME280;46188;52.324;8.032;2023-08-24T07:02:42;100556.06;;;18.66;100.00
60345;BME280;46188;52.324;8.032;2023-08-24T07:05:07;100549.59;;;18.76;100.00
60345;BME280;46188;52.324;8.032;2023-08-24T07:07:34;100541.44;;;18.86;100.00
60345;BME280;46188;52.324;8.032;2023-08-24T07:09:59;100551.09;;;18.91;100.00
60345;BME280;46188;52.324;8.032;2023-08-24T07:12:25;100541.16;;;18.98;100.00
60345;BME280;46188;52.324;8.032;2023-08-24T07:14:50;100536.56;;;19.03;100.00
60345;BME280;46188;52.324;8.032;2023-08-24T07:17:15;100536.41;;;19.11;100.00
60345;BME280;46188;52.324;8.032;2023-08-24T07:19:40;100533.63;;;19.15;100.00
60345;BME280;46188;52.324;8.032;2023-08-24T07:22:06;100530.84;;;19.22;100.00
60345;BME280;46188;52.324;8.032;2023-08-24T07:24:31;100535.88;;;19.34;100.00
60345;BME280;46188;52.324;8.032;2023-08-24T07:26:58;100535.63;;;19.45;100.00
60345;BME280;46188;52.324;8.032;2023-08-24T07:29:23;100538.94;;;19.54;100.00
60345;BME280;46188;52.324;8.032;2023-08-24T07:31:49;100530.75;;;19.61;100.00
60345;BME280;46188;52.324;8.032;2023-08-24T07:34:14;100526.00;;;19.72;100.00
60345;BME280;46188;52.324;8.032;2023-08-24T07:36:40;100514.09;;;19.85;100.00
60345;BME280;46188;52.324;8.032;2023-08-24T07:39:05;100517.47;;;19.92;100.00
60345;BME280;46188;52.324;8.032;2023-08-24T07:41:31;100516.25;;;20.04;100.00
60345;BME280;46188;52.324;8.032;2023-08-24T07:43:56;100517.91;;;20.09;100.00
60345;BME280;46188;52.324;8.032;2023-08-24T07:46:21;100517.63;;;20.19;100.00
60345;BME280;46188;52.324;8.032;2023-08-24T07:48:46;100503.13;;;20.27;100.00
60345;BME280;46188;52.324;8.032;2023-08-24T07:51:12;100504.66;;;20.36;100.00
60345;BME280;46188;52.324;8.032;2023-08-24T07:53:37;100502.66;;;20.44;100.00
60345;BME280;46188;52.324;8.032;2023-08-24T07:56:02;100512.03;;;20.59;100.00
60345;BME280;46188;52.324;8.032;2023-08-24T07:58:28;100517.06;;;20.70;100.00
60345;BME280;46188;52.324;8.032;2023-08-24T08:00:53;100514.81;;;20.86;100.00
60345;BME280;46188;52.324;8.032;2023-08-24T08:03:19;100509.28;;;20.92;100.00
60345;BME280;46188;52.324;8.032;2023-08-24T08:05:46;100514.13;;;21.08;100.00
60345;BME280;46188;52.324;8.032;2023-08-24T08:08:13;100510.91;;;21.25;100.00
60345;BME280;46188;52.324;8.032;2023-08-24T08:10:38;100512.44;;;21.33;100.00
60345;BME280;46188;52.324;8.032;2023-08-24T08:13:04;100511.09;;;21.48;100.00
60345;BME280;46188;52.324;8.032;2023-08-24T08:15:29;100513.44;;;21.58;100.00
60345;BME280;46188;52.324;8.032;2023-08-24T08:17:54;100512.97;;;21.71;100.00
60345;BME280;46188;52.324;8.032;2023-08-24T08:20:20;100519.63;;;21.86;100.00
60345;BME280;46188;52.324;8.032;2023-08-24T08:22:45;100522.66;;;22.01;100.00
60345;BME280;46188;52.324;8.032;2023-08-24T08:25:10;100523.22;;;22.10;100.00
60345;BME280;46188;52.324;8.032;2023-08-24T08:27:37;100526.34;;;22.23;100.00
60345;BME280;46188;52.324;8.032;2023-08-24T08:30:02;100520.72;;;22.31;100.00
60345;BME280;46188;52.324;8.032;2023-08-24T08:32:30;100519.34;;;22.44;100.00
60345;BME280;46188;52.324;8.032;2023-08-24T08:34:55;100522.47;;;22.56;100.00
60345;BME280;46188;52.324;8.032;2023-08-24T08:37:25;100520.31;;;22.65;100.00
60345;BME280;46188;52.324;8.032;2023-08-24T08:39:50;100521.84;;;22.73;100.00
60345;BME280;46188;52.324;8.032;2023-08-24T08:42:15;100509.78;;;22.83;100.00
60345;BME280;46188;52.324;8.032;2023-08-24T08:44:42;100514.63;;;22.97;100.00
60345;BME280;46188;52.324;8.032;2023-08-24T08:47:10;100503.75;;;23.00;100.00
60345;BME280;46188;52.324;8.032;2023-08-24T08:49:38;100512.31;;;22.88;100.00
60345;BME280;46188;52.324;8.032;2023-08-24T08:52:04;100497.53;;;22.76;100.00
60345;BME280;46188;52.324;8.032;2023-08-24T08:54:30;100493.84;;;22.78;100.00
60345;BME280;46188;52.324;8.032;2023-08-24T08:56:56;100478.88;;;22.95;100.00
60345;BME280;46188;52.324;8.032;2023-08-24T08:59:21;100475.63;;;23.09;100.00
60345;BME280;46188;52.324;8.032;2023-08-24T09:01:47;100477.78;;;23.23;99.98
60345;BME280;46188;52.324;8.032;2023-08-24T09:04:14;100468.94;;;23.41;98.83
60345;BME280;46188;52.324;8.032;2023-08-24T09:06:39;100466.47;;;23.57;98.72
60345;BME280;46188;52.324;8.032;2023-08-24T09:09:05;100463.47;;;23.63;98.38
60345;BME280;46188;52.324;8.032;2023-08-24T09:11:31;100466.66;;;23.73;97.27
60345;BME280;46188;52.324;8.032;2023-08-24T09:13:58;100468.16;;;23.80;95.62
60345;BME280;46188;52.324;8.032;2023-08-24T09:16:28;100461.50;;;23.89;94.30
60345;BME280;46188;52.324;8.032;2023-08-24T09:18:54;100459.22;;;24.00;93.44
60345;BME280;46188;52.324;8.032;2023-08-24T09:21:19;100458.25;;;24.01;92.48
60345;BME280;46188;52.324;8.032;2023-08-24T09:23:51;100455.03;;;24.13;90.55
60345;BME280;46188;52.324;8.032;2023-08-24T09:26:27;100457.66;;;24.15;89.46
60345;BME280;46188;52.324;8.032;2023-08-24T09:28:52;100461.53;;;24.28;88.72
60345;BME280;46188;52.324;8.032;2023-08-24T09:31:17;100451.84;;;24.43;88.18
60345;BME280;46188;52.324;8.032;2023-08-24T09:33:43;100453.38;;;24.49;87.09
60345;BME280;46188;52.324;8.032;2023-08-24T09:36:14;100453.03;;;24.57;86.20
60345;BME280;46188;52.324;8.032;2023-08-24T09:38:46;100450.00;;;24.64;85.83
60345;BME280;46188;52.324;8.032;2023-08-24T09:41:12;100453.19;;;24.73;83.98
60345;BME280;46188;52.324;8.032;2023-08-24T09:43:38;100437.81;;;24.75;83.32
60345;BME280;46188;52.324;8.032;2023-08-24T09:46:03;100436.78;;;24.77;82.61
60345;BME280;46188;52.324;8.032;2023-08-24T09:48:30;100432.94;;;24.83;81.19
60345;BME280;46188;52.324;8.032;2023-08-24T09:50:56;100422.22;;;24.81;80.84
60345;BME280;46188;52.324;8.032;2023-08-24T09:53:23;100428.47;;;24.82;80.28
60345;BME280;46188;52.324;8.032;2023-08-24T09:56:01;100419.31;;;24.86;79.39
60345;BME280;46188;52.324;8.032;2023-08-24T09:58:28;100420.59;;;24.96;78.92
60345;BME280;46188;52.324;8.032;2023-08-24T10:00:54;100411.72;;;25.12;78.75
60345;BME280;46188;52.324;8.032;2023-08-24T10:03:24;100397.84;;;25.19;76.87
60345;BME280;46188;52.324;8.032;2023-08-24T10:05:54;100407.44;;;25.25;75.39
60345;BME280;46188;52.324;8.032;2023-08-24T10:08:34;100396.78;;;25.22;74.16
60345;BME280;46188;52.324;8.032;2023-08-24T10:11:00;100409.78;;;25.33;72.35
60345;BME280;46188;52.324;8.032;2023-08-24T10:15:57;100390.66;;;25.37;71.24
60345;BME280;46188;52.324;8.032;2023-08-24T10:18:25;100385.13;;;25.40;71.61
60345;BME280;46188;52.324;8.032;2023-08-24T10:20:52;100385.41;;;25.52;70.80
60345;BME280;46188;52.324;8.032;2023-08-24T10:23:19;100388.63;;;25.58;71.31
60345;BME280;46188;52.324;8.032;2023-08-24T10:25:46;100383.72;;;25.67;70.07
60345;BME280;46188;52.324;8.032;2023-08-24T10:28:11;100384.16;;;25.75;69.49
60345;BME280;46188;52.324;8.032;2023-08-24T10:30:38;100390.66;;;25.88;68.80
60345;BME280;46188;52.324;8.032;2023-08-24T10:33:05;100375.91;;;25.95;68.45
60345;BME280;46188;52.324;8.032;2023-08-24T10:35:31;100380.25;;;25.98;67.16
60345;BME280;46188;52.324;8.032;2023-08-24T10:37:58;100371.22;;;25.99;67.83
60345;BME280;46188;52.324;8.032;2023-08-24T10:40:34;100376.13;;;26.08;66.91
60345;BME280;46188;52.324;8.032;2023-08-24T10:43:03;100366.53;;;26.19;66.69
60345;BME280;46188;52.324;8.032;2023-08-24T10:45:59;100361.06;;;26.20;66.20
60345;BME280;46188;52.324;8.032;2023-08-24T10:48:27;100354.78;;;26.36;65.63
60345;BME280;46188;52.324;8.032;2023-08-24T10:51:25;100354.84;;;26.34;65.29
60345;BME280;46188;52.324;8.032;2023-08-24T10:54:02;100358.44;;;26.50;64.75
60345;BME280;46188;52.324;8.032;2023-08-24T10:56:33;100366.88;;;26.60;65.58
60345;BME280;46188;52.324;8.032;2023-08-24T10:59:14;100369.19;;;26.68;65.81
60345;BME280;46188;52.324;8.032;2023-08-24T11:01:53;100355.81;;;26.81;65.02
60345;BME280;46188;52.324;8.032;2023-08-24T11:04:19;100338.81;;;26.79;64.68
60345;BME280;46188;52.324;8.032;2023-08-24T11:06:55;100317.94;;;26.81;64.68
60345;BME280;46188;52.324;8.032;2023-08-24T11:09:22;100304.31;;;26.82;64.44
60345;BME280;46188;52.324;8.032;2023-08-24T11:12:02;100302.13;;;26.89;64.65
60345;BME280;46188;52.324;8.032;2023-08-24T11:14:28;100284.78;;;26.93;64.47
60345;BME280;46188;52.324;8.032;2023-08-24T11:17:00;100280.44;;;27.05;64.60
60345;BME280;46188;52.324;8.032;2023-08-24T11:19:27;100274.84;;;27.08;65.11
60345;BME280;46188;52.324;8.032;2023-08-24T11:21:53;100266.72;;;27.22;65.21
60345;BME280;46188;52.324;8.032;2023-08-24T11:24:18;100268.91;;;27.32;64.42
60345;BME280;46188;52.324;8.032;2023-08-24T11:26:45;100264.34;;;27.32;64.45
60345;BME280;46188;52.324;8.032;2023-08-24T11:29:11;100257.72;;;27.38;63.96
60345;BME280;46188;52.324;8.032;2023-08-24T11:31:37;100263.13;;;27.38;63.98
60345;BME280;46188;52.324;8.032;2023-08-24T11:34:03;100248.31;;;27.43;63.62
60345;BME280;46188;52.324;8.032;2023-08-24T11:36:30;100248.59;;;27.39;63.51
60345;BME280;46188;52.324;8.032;2023-08-24T11:38:57;100250.44;;;27.38;62.58
60345;BME280;46188;52.324;8.032;2023-08-24T11:41:23;100237.22;;;27.48;61.78
60345;BME280;46188;52.324;8.032;2023-08-24T11:43:49;100234.69;;;27.59;61.56
60345;BME280;46188;52.324;8.032;2023-08-24T11:46:23;100232.84;;;27.60;61.62
60345;BME280;46188;52.324;8.032;2023-08-24T11:48:48;100238.53;;;27.70;61.71
60345;BME280;46188;52.324;8.032;2023-08-24T11:51:13;100236.78;;;27.69;62.13
60345;BME280;46188;52.324;8.032;2023-08-24T11:53:40;100245.56;;;27.87;61.86
60345;BME280;46188;52.324;8.032;2023-08-24T11:56:08;100256.91;;;27.93;61.35
60345;BME280;46188;52.324;8.032;2023-08-24T11:58:33;100249.44;;;27.97;61.09
60345;BME280;46188;52.324;8.032;2023-08-24T12:00:58;100241.53;;;27.94;61.35
60345;BME280;46188;52.324;8.032;2023-08-24T12:03:24;100240.47;;;27.96;60.21
60345;BME280;46188;52.324;8.032;2023-08-24T12:05:49;100236.78;;;27.83;60.36
60345;BME280;46188;52.324;8.032;2023-08-24T12:08:15;100241.13;;;27.86;60.12
60345;BME280;46188;52.324;8.032;2023-08-24T12:10:43;100232.31;;;27.96;60.12
60345;BME280;46188;52.324;8.032;2023-08-24T12:13:12;100228.25;;;28.04;60.63
60345;BME280;46188;52.324;8.032;2023-08-24T12:15:37;100228.56;;;27.99;60.83
60345;BME280;46188;52.324;8.032;2023-08-24T12:18:13;100238.31;;;28.02;61.19
60345;BME280;46188;52.324;8.032;2023-08-24T12:20:42;100226.69;;;28.14;61.13
60345;BME280;46188;52.324;8.032;2023-08-24T12:23:07;100224.44;;;28.21;61.11
60345;BME280;46188;52.324;8.032;2023-08-24T12:25:37;100225.09;;;28.24;60.98
60345;BME280;46188;52.324;8.032;2023-08-24T12:28:14;100220.63;;;28.23;60.94
60345;BME280;46188;52.324;8.032;2023-08-24T12:30:59;100214.25;;;28.24;60.32
60345;BME280;46188;52.324;8.032;2023-08-24T12:33:29;100212.53;;;28.36;60.21
60345;BME280;46188;52.324;8.032;2023-08-24T12:35:55;100216.56;;;28.43;60.37
60345;BME280;46188;52.324;8.032;2023-08-24T12:38:21;100215.16;;;28.38;60.95
60345;BME280;46188;52.324;8.032;2023-08-24T12:40:47;100213.63;;;28.33;61.09
60345;BME280;46188;52.324;8.032;2023-08-24T12:43:12;100219.16;;;28.32;61.28